createdAt,value
2023-05-09T00:00:52.841Z,13.25
2023-05-09T00:03:16.298Z,12.98
2023-05-09T00:05:39.819Z,14.00
2023-05-09T00:08:04.638Z,14.60
2023-05-09T00:10:29.169Z,13.77
2023-05-09T00:12:52.443Z,13.18
2023-05-09T00:15:16.064Z,12.45
2023-05-09T00:17:40.042Z,13.55
2023-05-09T00:20:05.185Z,13.93
2023-05-09T00:22:29.765Z,12.90
2023-05-09T00:24:54.850Z,14.18
2023-05-09T00:27:18.534Z,12.50
2023-05-09T00:29:41.890Z,14.15
2023-05-09T00:32:05.817Z,13.75
2023-05-09T00:34:29.131Z,14.82
2023-05-09T00:36:52.396Z,14.25
2023-05-09T00:39:15.644Z,14.00
2023-05-09T00:41:40.615Z,13.88
2023-05-09T00:44:03.936Z,13.73
2023-05-09T00:46:27.442Z,14.45
2023-05-09T00:48:52.378Z,14.98
2023-05-09T00:51:16.089Z,13.05
2023-05-09T00:53:39.573Z,15.60
2023-05-09T00:56:03.687Z,15.13
2023-05-09T00:58:28.906Z,15.32
2023-05-09T01:00:52.203Z,14.40
2023-05-09T01:03:15.940Z,14.68
2023-05-09T01:05:47.916Z,14.90
2023-05-09T01:08:20.629Z,14.55
2023-05-09T01:10:50.638Z,14.95
2023-05-09T01:13:24.325Z,14.70
2023-05-09T01:15:57.319Z,14.68
2023-05-09T01:18:31.030Z,14.05
2023-05-09T01:21:01.825Z,14.80
2023-05-09T01:24:14.684Z,13.90
2023-05-09T01:26:47.003Z,16.38
2023-05-09T01:29:42.327Z,14.35
2023-05-09T01:32:11.748Z,14.38
2023-05-09T01:34:36.584Z,13.07
2023-05-09T01:37:02.359Z,13.85
2023-05-09T01:39:26.634Z,15.27
2023-05-09T01:41:50.360Z,13.93
2023-05-09T01:44:15.067Z,15.32
2023-05-09T01:46:41.037Z,14.55
2023-05-09T01:49:05.030Z,14.93
2023-05-09T01:51:29.938Z,14.05
2023-05-09T01:53:55.619Z,13.73
2023-05-09T01:56:21.592Z,14.23
2023-05-09T01:58:48.238Z,15.20
2023-05-09T02:01:14.758Z,15.23
2023-05-09T02:03:40.534Z,13.48
2023-05-09T02:06:06.549Z,12.90
2023-05-09T02:08:30.469Z,12.90
2023-05-09T02:10:54.074Z,16.20
2023-05-09T02:13:17.559Z,22.33
2023-05-09T02:15:41.812Z,24.52
2023-05-09T02:18:05.541Z,28.70
2023-05-09T02:20:30.441Z,30.80
2023-05-09T02:22:53.804Z,29.75
2023-05-09T02:25:18.644Z,31.90
2023-05-09T02:27:44.450Z,35.10
2023-05-09T02:30:14.094Z,35.50
2023-05-09T02:32:40.136Z,33.92
2023-05-09T02:35:06.373Z,41.10
2023-05-09T02:37:31.805Z,41.42
2023-05-09T02:39:55.734Z,40.92
2023-05-09T02:42:25.168Z,45.85
2023-05-09T02:44:48.558Z,46.00
2023-05-09T02:47:12.374Z,45.85
2023-05-09T02:49:35.887Z,45.97
2023-05-09T02:52:01.423Z,48.00
2023-05-09T02:54:26.136Z,45.58
2023-05-09T02:56:49.415Z,46.67
2023-05-09T02:59:12.760Z,48.85
2023-05-09T03:01:36.086Z,49.75
2023-05-09T03:04:00.307Z,51.05
2023-05-09T03:06:23.611Z,50.90
2023-05-09T03:08:46.962Z,49.22
2023-05-09T03:11:11.687Z,47.97
2023-05-09T03:13:35.055Z,45.85
2023-05-09T03:15:58.323Z,46.50
2023-05-09T03:18:21.646Z,47.72
2023-05-09T03:20:44.898Z,50.33
2023-05-09T03:23:08.290Z,52.10
2023-05-09T03:25:31.561Z,46.72
2023-05-09T03:27:56.177Z,53.03
2023-05-09T03:30:20.403Z,47.65
2023-05-09T03:32:45.895Z,52.03
2023-05-09T03:35:09.896Z,51.03
2023-05-09T03:37:33.545Z,48.90
2023-05-09T03:39:56.902Z,52.65
2023-05-09T03:42:20.154Z,52.35
2023-05-09T03:44:48.948Z,49.10
2023-05-09T03:47:12.930Z,50.08
2023-05-09T03:49:36.887Z,44.90
2023-05-09T03:52:00.432Z,45.70
2023-05-09T03:54:23.830Z,47.35
2023-05-09T03:56:47.552Z,45.75
2023-05-09T03:59:10.874Z,47.28
2023-05-09T04:01:35.574Z,46.60
2023-05-09T04:04:00.173Z,50.13
2023-05-09T04:06:24.888Z,49.80
2023-05-09T04:08:48.155Z,46.40
2023-05-09T04:11:11.524Z,43.97
2023-05-09T04:13:38.061Z,47.47
2023-05-09T04:16:09.826Z,47.00
2023-05-09T04:18:34.654Z,45.60
2023-05-09T04:20:57.984Z,43.45
2023-05-09T04:23:21.365Z,39.90
2023-05-09T04:25:44.891Z,44.40
2023-05-09T04:28:08.337Z,40.47
2023-05-09T04:30:31.674Z,38.80
2023-05-09T04:32:55.814Z,42.33
2023-05-09T04:35:21.485Z,41.58
2023-05-09T04:37:46.491Z,41.17
2023-05-09T04:40:11.563Z,39.05
2023-05-09T04:42:44.107Z,40.25
2023-05-09T04:45:09.400Z,38.08
2023-05-09T04:47:33.025Z,37.53
2023-05-09T04:49:56.313Z,40.15
2023-05-09T04:52:20.949Z,35.70
2023-05-09T04:54:44.933Z,37.08
2023-05-09T04:57:17.749Z,36.17
2023-05-09T04:59:44.225Z,35.17
2023-05-09T05:02:10.427Z,33.95
2023-05-09T05:04:33.997Z,34.83
2023-05-09T05:06:57.664Z,29.38
2023-05-09T05:09:22.319Z,29.52
2023-05-09T05:11:58.370Z,30.35
2023-05-09T05:14:24.826Z,28.52
2023-05-09T05:16:48.150Z,29.52
2023-05-09T05:19:12.530Z,27.65
2023-05-09T05:21:37.764Z,29.25
2023-05-09T05:24:02.004Z,28.27
2023-05-09T05:26:26.834Z,27.38
2023-05-09T05:28:55.328Z,29.83
2023-05-09T05:31:18.836Z,27.15
2023-05-09T05:33:42.256Z,29.13
2023-05-09T05:36:06.275Z,26.48
2023-05-09T05:38:29.616Z,27.83
2023-05-09T05:40:54.169Z,27.08
2023-05-09T05:43:19.560Z,27.27
2023-05-09T05:45:42.940Z,27.40
2023-05-09T05:48:11.538Z,25.88
2023-05-09T05:50:36.677Z,29.98
2023-05-09T05:53:00.456Z,31.80
2023-05-09T05:55:23.941Z,36.05
2023-05-09T05:57:47.724Z,36.90
2023-05-09T06:00:15.494Z,44.58
2023-05-09T06:02:47.913Z,44.67
2023-05-09T06:05:18.970Z,46.50
2023-05-09T06:07:44.102Z,46.97
2023-05-09T06:10:09.378Z,39.50
2023-05-09T06:12:32.668Z,42.78
2023-05-09T06:14:56.034Z,33.67
2023-05-09T06:17:21.182Z,30.65
2023-05-09T06:19:44.463Z,29.35
2023-05-09T06:22:07.790Z,28.90
2023-05-09T06:24:35.613Z,27.23
2023-05-09T06:27:00.046Z,27.70
2023-05-09T06:29:23.289Z,29.65
2023-05-09T06:31:46.640Z,28.73
2023-05-09T06:34:11.294Z,28.00
2023-05-09T06:36:34.674Z,28.38
2023-05-09T06:38:57.968Z,29.48
2023-05-09T06:41:21.529Z,28.00
2023-05-09T06:43:44.869Z,32.20
2023-05-09T06:46:08.173Z,32.28
2023-05-09T06:48:31.662Z,32.03
2023-05-09T06:50:56.330Z,29.90
2023-05-09T06:53:19.673Z,31.00
2023-05-09T06:55:43.526Z,30.13
2023-05-09T06:58:06.977Z,28.83
2023-05-09T07:00:30.325Z,30.60
2023-05-09T07:02:53.715Z,28.15
2023-05-09T07:05:17.499Z,28.15
2023-05-09T07:07:42.249Z,28.00
2023-05-09T07:10:11.279Z,26.05
2023-05-09T07:12:35.885Z,24.60
2023-05-09T07:14:59.218Z,25.45
2023-05-09T07:17:24.121Z,26.60
2023-05-09T07:19:47.616Z,25.45
2023-05-09T07:22:10.922Z,24.45
2023-05-09T07:24:35.662Z,24.70
2023-05-09T07:26:58.876Z,22.30
2023-05-09T07:29:22.193Z,22.92
2023-05-09T07:31:45.706Z,23.02
2023-05-09T07:34:09.029Z,23.52
2023-05-09T07:36:34.818Z,23.10
2023-05-09T07:38:58.804Z,23.05
2023-05-09T07:41:23.582Z,24.27
2023-05-09T07:43:46.918Z,24.10
2023-05-09T07:46:10.228Z,22.88
2023-05-09T07:48:33.553Z,21.50
2023-05-09T07:50:56.838Z,21.70
2023-05-09T07:53:20.186Z,22.88
2023-05-09T07:55:44.659Z,21.55
2023-05-09T07:58:09.703Z,21.77
2023-05-09T08:00:33.083Z,22.55
2023-05-09T08:02:56.487Z,20.80
2023-05-09T08:05:20.072Z,20.60
2023-05-09T08:07:43.413Z,19.08
2023-05-09T08:10:08.419Z,19.08
2023-05-09T08:12:31.701Z,18.80
2023-05-09T08:14:56.327Z,17.15
2023-05-09T08:17:19.560Z,17.20
2023-05-09T08:19:42.851Z,16.35
2023-05-09T08:22:06.130Z,15.90
2023-05-09T08:24:29.914Z,17.00
2023-05-09T08:26:53.219Z,14.52
2023-05-09T08:29:17.654Z,13.80
2023-05-09T08:31:42.349Z,13.55
2023-05-09T08:34:05.695Z,12.90
2023-05-09T08:36:28.907Z,12.45
2023-05-09T08:38:52.888Z,12.00
2023-05-09T08:41:16.559Z,11.80
2023-05-09T08:43:41.680Z,10.73
2023-05-09T08:46:08.680Z,9.82
2023-05-09T08:48:37.522Z,8.57
2023-05-09T08:51:01.120Z,8.98
2023-05-09T08:53:24.634Z,8.70
2023-05-09T08:55:48.084Z,9.10
2023-05-09T08:58:11.783Z,8.48
2023-05-09T09:00:35.786Z,6.97
2023-05-09T09:03:04.002Z,6.82
2023-05-09T09:07:59.621Z,6.97
2023-05-09T09:10:25.803Z,6.13
2023-05-09T09:12:50.383Z,5.90
2023-05-09T09:15:19.518Z,5.82
2023-05-09T09:17:44.841Z,5.30
2023-05-09T09:20:13.596Z,5.10
2023-05-09T09:22:43.968Z,5.63
2023-05-09T09:25:07.801Z,6.55
2023-05-09T09:27:32.752Z,4.78
2023-05-09T09:29:56.079Z,6.32
2023-05-09T09:32:19.952Z,6.10
2023-05-09T09:37:24.420Z,5.72
2023-05-09T09:39:56.875Z,4.68
2023-05-09T09:42:20.383Z,5.07
2023-05-09T09:44:43.645Z,5.03
2023-05-09T09:47:11.939Z,4.95
2023-05-09T09:49:35.336Z,4.55
2023-05-09T09:51:59.875Z,4.90
2023-05-09T09:54:23.987Z,4.28
2023-05-09T09:56:50.417Z,4.20
2023-05-09T09:59:15.497Z,4.38
2023-05-09T10:01:56.831Z,4.20
2023-05-09T10:04:20.111Z,4.65
2023-05-09T10:06:54.181Z,4.07
2023-05-09T10:09:18.260Z,2.90
2023-05-09T10:11:42.044Z,3.10
2023-05-09T10:14:07.044Z,3.38
2023-05-09T10:16:42.658Z,3.25
2023-05-09T10:19:07.962Z,3.63
2023-05-09T10:21:31.773Z,3.55
2023-05-09T10:23:56.382Z,3.17
2023-05-09T10:26:27.427Z,3.17
2023-05-09T10:28:56.331Z,3.33
2023-05-09T10:31:27.357Z,3.40
2023-05-09T10:33:52.244Z,3.47
2023-05-09T10:36:20.464Z,3.85
2023-05-09T10:38:44.898Z,3.42
2023-05-09T10:41:10.261Z,4.35
2023-05-09T10:43:36.698Z,3.80
2023-05-09T10:46:00.314Z,3.60
2023-05-09T10:48:25.306Z,4.57
2023-05-09T10:50:49.502Z,3.30
2023-05-09T10:53:14.404Z,3.83
2023-05-09T10:55:39.961Z,3.05
2023-05-09T10:58:20.610Z,3.70
2023-05-09T11:00:44.340Z,3.30
2023-05-09T11:03:08.906Z,3.15
2023-05-09T11:05:40.546Z,2.75
2023-05-09T11:08:25.199Z,2.72
2023-05-09T11:10:49.565Z,2.70
2023-05-09T11:13:12.901Z,2.90
2023-05-09T11:15:38.057Z,3.10
2023-05-09T11:18:08.879Z,2.78
2023-05-09T11:20:36.011Z,2.85
2023-05-09T11:23:01.147Z,3.17
2023-05-09T11:25:28.415Z,2.88
2023-05-09T11:27:52.161Z,3.33
2023-05-09T11:30:18.261Z,2.80
2023-05-09T11:32:47.537Z,2.90
2023-05-09T11:35:14.943Z,4.18
2023-05-09T11:37:48.026Z,3.53
2023-05-09T11:40:14.553Z,3.08
2023-05-09T11:42:37.848Z,3.45
2023-05-09T11:45:01.134Z,2.65
2023-05-09T11:47:24.847Z,3.13
2023-05-09T11:49:49.466Z,3.33
2023-05-09T11:52:12.828Z,3.10
2023-05-09T11:54:40.200Z,3.95
2023-05-09T11:57:03.743Z,4.60
2023-05-09T11:59:27.298Z,5.10
2023-05-09T12:01:50.581Z,6.75
2023-05-09T12:04:13.980Z,7.15
2023-05-09T12:06:37.772Z,8.43
2023-05-09T12:09:01.168Z,8.25
2023-05-09T12:11:26.258Z,9.07
2023-05-09T12:13:52.238Z,9.02
2023-05-09T12:16:16.469Z,8.18
2023-05-09T12:18:39.821Z,8.63
2023-05-09T12:21:03.799Z,8.00
2023-05-09T12:23:27.105Z,7.97
2023-05-09T12:25:54.295Z,8.65
2023-05-09T12:28:19.530Z,8.40
2023-05-09T12:30:43.870Z,8.27
2023-05-09T12:33:10.373Z,8.35
2023-05-09T12:35:35.328Z,7.10
2023-05-09T12:38:00.105Z,9.13
2023-05-09T12:40:23.648Z,10.93
2023-05-09T12:42:47.235Z,11.95
2023-05-09T12:45:13.357Z,11.43
2023-05-09T12:47:38.774Z,12.55
2023-05-09T12:50:04.319Z,11.43
2023-05-09T12:52:34.577Z,12.20
2023-05-09T12:55:07.838Z,13.05
2023-05-09T12:57:31.677Z,10.75
2023-05-09T13:00:00.115Z,12.48
2023-05-09T13:02:27.057Z,11.52
2023-05-09T13:04:50.594Z,12.27
2023-05-09T13:07:13.893Z,11.98
2023-05-09T13:09:37.489Z,12.45
2023-05-09T13:12:01.096Z,12.15
2023-05-09T13:14:24.655Z,11.88
2023-05-09T13:16:47.958Z,11.10
2023-05-09T13:19:12.570Z,11.27
2023-05-09T13:21:37.060Z,12.23
2023-05-09T13:24:00.347Z,12.48
2023-05-09T13:26:23.867Z,11.25
2023-05-09T13:28:47.098Z,11.10
2023-05-09T13:31:10.685Z,12.38
2023-05-09T13:33:34.127Z,12.93
2023-05-09T13:35:58.854Z,12.18
2023-05-09T13:38:22.138Z,12.13
2023-05-09T13:40:45.392Z,13.27
2023-05-09T13:43:08.638Z,12.77
2023-05-09T13:45:31.946Z,13.07
2023-05-09T13:47:55.502Z,12.93
2023-05-09T13:50:19.065Z,13.52
2023-05-09T13:52:43.647Z,13.25
2023-05-09T13:55:07.932Z,13.88
2023-05-09T13:57:31.237Z,13.90
2023-05-09T13:59:54.510Z,14.00
2023-05-09T14:02:18.717Z,13.27
2023-05-09T14:04:42.945Z,13.85
2023-05-09T14:07:06.667Z,13.07
2023-05-09T14:09:31.321Z,12.48
2023-05-09T14:11:55.528Z,13.77
2023-05-09T14:14:18.999Z,10.68
2023-05-09T14:16:42.282Z,9.82
2023-05-09T14:19:07.054Z,8.88
2023-05-09T14:21:30.431Z,8.77
2023-05-09T14:23:53.705Z,9.00
2023-05-09T14:26:19.112Z,8.27
2023-05-09T14:28:42.550Z,8.35
2023-05-09T14:31:06.349Z,8.82
2023-05-09T14:33:29.663Z,8.50
2023-05-09T14:35:53.090Z,8.02
2023-05-09T14:38:16.440Z,8.05
2023-05-09T14:40:39.704Z,7.80
2023-05-09T14:43:04.337Z,8.00
2023-05-09T14:45:27.944Z,8.07
2023-05-09T14:47:51.395Z,7.60
2023-05-09T14:50:16.104Z,6.60
2023-05-09T14:52:39.489Z,6.18
2023-05-09T14:55:03.501Z,5.93
2023-05-09T14:57:26.911Z,5.13
2023-05-09T14:59:52.084Z,4.70
2023-05-09T15:02:15.245Z,5.32
2023-05-09T15:04:38.554Z,5.25
2023-05-09T15:07:01.841Z,5.50
2023-05-09T15:09:25.040Z,5.72
2023-05-09T15:11:49.269Z,5.82
2023-05-09T15:14:12.710Z,5.93
2023-05-09T15:16:37.425Z,6.50
2023-05-09T15:19:00.932Z,6.15
2023-05-09T15:21:24.293Z,6.82
2023-05-09T15:23:47.964Z,6.55
2023-05-09T15:26:12.330Z,6.93
2023-05-09T15:28:35.614Z,6.05
2023-05-09T15:30:59.977Z,6.47
2023-05-09T15:33:25.076Z,5.88
2023-05-09T15:35:50.124Z,6.53
2023-05-09T15:38:14.373Z,6.05
2023-05-09T15:40:37.603Z,6.60
2023-05-09T15:43:08.010Z,6.30
2023-05-09T15:45:33.975Z,6.15
2023-05-09T15:47:57.336Z,6.88
2023-05-09T15:50:22.234Z,7.40
2023-05-09T15:52:45.707Z,7.03
2023-05-09T15:55:12.805Z,6.88
2023-05-09T15:57:36.515Z,6.53
2023-05-09T15:59:59.840Z,6.50
2023-05-09T16:02:23.816Z,5.47
2023-05-09T16:04:47.368Z,6.00
2023-05-09T16:07:12.199Z,5.47
2023-05-09T16:09:35.452Z,4.90
2023-05-09T16:11:58.696Z,5.57
2023-05-09T16:14:22.138Z,5.20
2023-05-09T16:16:47.052Z,3.97
2023-05-09T16:19:10.727Z,3.05
2023-05-09T16:21:34.290Z,3.00
2023-05-09T16:24:00.151Z,3.25
2023-05-09T16:26:23.423Z,2.67
2023-05-09T16:28:46.704Z,2.50
2023-05-09T16:31:10.070Z,2.40
2023-05-09T16:33:33.879Z,2.63
2023-05-09T16:35:57.477Z,2.50
2023-05-09T16:38:20.701Z,2.53
2023-05-09T16:40:45.369Z,3.50
2023-05-09T16:43:08.696Z,2.50
2023-05-09T16:45:32.112Z,2.70
2023-05-09T16:47:58.454Z,2.33
2023-05-09T16:50:22.797Z,1.30
2023-05-09T16:52:46.033Z,1.50
2023-05-09T16:55:10.140Z,1.63
2023-05-09T16:57:34.896Z,1.63
2023-05-09T16:59:58.492Z,1.40
2023-05-09T17:02:21.835Z,1.10
2023-05-09T17:04:45.520Z,1.05
2023-05-09T17:07:08.791Z,1.42
2023-05-09T17:09:32.110Z,1.40
2023-05-09T17:11:55.567Z,1.20
2023-05-09T17:14:20.114Z,1.48
2023-05-09T17:16:43.477Z,1.48
2023-05-09T17:19:06.802Z,1.92
2023-05-09T17:21:30.798Z,1.45
2023-05-09T17:23:54.214Z,1.83
2023-05-09T17:26:17.516Z,2.00
2023-05-09T17:28:40.864Z,1.88
2023-05-09T17:31:05.757Z,2.10
2023-05-09T17:33:30.135Z,2.15
2023-05-09T17:35:53.467Z,2.40
2023-05-09T17:38:16.818Z,3.75
2023-05-09T17:40:40.650Z,3.92
2023-05-09T17:43:04.026Z,2.83
2023-05-09T17:45:27.311Z,3.00
2023-05-09T17:47:52.029Z,2.88
2023-05-09T17:50:17.220Z,2.95
2023-05-09T17:52:40.866Z,3.20
2023-05-09T17:55:05.786Z,3.50
2023-05-09T17:57:29.037Z,3.22
2023-05-09T17:59:52.434Z,2.97
2023-05-09T18:02:16.747Z,3.10
2023-05-09T18:04:41.493Z,2.45
2023-05-09T18:07:04.926Z,2.72
2023-05-09T18:09:28.262Z,3.08
2023-05-09T18:11:51.517Z,3.60
2023-05-09T18:14:15.160Z,3.60
2023-05-09T18:16:38.554Z,2.53
2023-05-09T18:19:02.826Z,2.60
2023-05-09T18:21:29.250Z,2.70
2023-05-09T18:23:52.749Z,2.38
2023-05-09T18:26:16.033Z,2.45
2023-05-09T18:28:40.151Z,2.67
2023-05-09T18:31:03.638Z,2.22
2023-05-09T18:33:29.012Z,2.75
2023-05-09T18:35:54.567Z,2.53
2023-05-09T18:38:19.277Z,2.38
2023-05-09T18:40:43.125Z,2.28
2023-05-09T18:43:07.912Z,2.20
2023-05-09T18:45:31.659Z,2.33
2023-05-09T18:47:54.910Z,2.03
2023-05-09T18:50:19.313Z,2.25
2023-05-09T18:52:44.323Z,2.35
2023-05-09T18:55:10.346Z,2.25
2023-05-09T18:57:33.867Z,2.50
2023-05-09T18:59:57.228Z,2.30
2023-05-09T19:02:20.708Z,2.40
2023-05-09T19:04:46.093Z,2.50
2023-05-09T19:07:10.119Z,2.60
2023-05-09T19:09:33.591Z,2.60
2023-05-09T19:11:59.592Z,3.40
2023-05-09T19:14:22.902Z,3.15
2023-05-09T19:16:46.256Z,3.75
2023-05-09T19:19:09.949Z,3.33
2023-05-09T19:21:34.239Z,5.03
2023-05-09T19:23:57.587Z,4.90
2023-05-09T19:26:21.955Z,4.85
2023-05-09T19:28:47.504Z,5.88
2023-05-09T19:31:10.890Z,5.93
2023-05-09T19:33:34.848Z,4.80
2023-05-09T19:35:58.133Z,4.30
2023-05-09T19:38:21.398Z,4.50
2023-05-09T19:40:44.747Z,4.53
2023-05-09T19:43:08.372Z,4.68
2023-05-09T19:45:33.443Z,3.75
2023-05-09T19:47:56.757Z,2.88
2023-05-09T19:50:20.493Z,2.78
2023-05-09T19:52:43.878Z,2.90
2023-05-09T19:55:08.346Z,2.60
2023-05-09T19:57:31.643Z,2.60
2023-05-09T19:59:55.668Z,3.17
2023-05-09T20:02:20.322Z,3.45
2023-05-09T20:04:49.604Z,3.20
2023-05-09T20:07:13.174Z,3.70
2023-05-09T20:09:36.681Z,4.10
2023-05-09T20:12:00.195Z,4.68
2023-05-09T20:14:23.815Z,5.20
2023-05-09T20:16:47.089Z,4.65
2023-05-09T20:19:14.534Z,5.60
2023-05-09T20:21:37.842Z,6.00
2023-05-09T20:24:01.178Z,5.65
2023-05-09T20:26:25.307Z,6.50
2023-05-09T20:28:48.656Z,7.38
2023-05-09T20:31:12.221Z,7.35
2023-05-09T20:33:35.534Z,7.68
2023-05-09T20:36:00.790Z,7.70
2023-05-09T20:38:24.013Z,9.13
2023-05-09T20:40:47.315Z,8.25
2023-05-09T20:43:10.520Z,8.30
2023-05-09T20:45:34.086Z,8.18
2023-05-09T20:47:57.530Z,8.88
2023-05-09T20:50:20.911Z,8.32
2023-05-09T20:52:45.639Z,9.27
2023-05-09T20:55:10.061Z,7.63
2023-05-09T20:57:33.355Z,8.30
2023-05-09T20:59:56.589Z,7.90
2023-05-09T21:02:19.923Z,7.30
2023-05-09T21:04:43.262Z,7.57
2023-05-09T21:07:06.731Z,7.35
2023-05-09T21:09:31.453Z,8.02
2023-05-09T21:11:54.697Z,8.48
2023-05-09T21:14:18.061Z,9.52
2023-05-09T21:16:43.713Z,9.70
2023-05-09T21:19:08.785Z,10.25
2023-05-09T21:21:32.947Z,10.93
2023-05-09T21:23:56.224Z,10.52
2023-05-09T21:26:22.795Z,10.65
2023-05-09T21:28:46.099Z,9.70
2023-05-09T21:31:11.278Z,10.93
2023-05-09T21:33:35.301Z,10.90
2023-05-09T21:35:59.234Z,11.43
2023-05-09T21:38:22.487Z,11.70
2023-05-09T21:40:45.667Z,11.00
2023-05-09T21:43:10.317Z,10.50
2023-05-09T21:45:34.031Z,9.98
2023-05-09T21:47:57.541Z,11.20
2023-05-09T21:50:21.104Z,11.52
2023-05-09T21:52:44.310Z,12.43
2023-05-09T21:55:07.846Z,10.63
2023-05-09T21:57:31.097Z,10.57
2023-05-09T21:59:56.248Z,11.43
2023-05-09T22:02:19.842Z,11.38
2023-05-09T22:04:43.185Z,10.95
2023-05-09T22:07:06.433Z,9.82
2023-05-09T22:09:29.839Z,11.38
2023-05-09T22:11:53.909Z,11.15
2023-05-09T22:14:17.220Z,10.60
2023-05-09T22:16:42.057Z,10.65
2023-05-09T22:19:05.516Z,10.60
2023-05-09T22:21:29.320Z,10.27
2023-05-09T22:23:53.564Z,11.00
2023-05-09T22:26:16.828Z,11.15
2023-05-09T22:28:40.186Z,10.73
2023-05-09T22:31:03.453Z,11.38
2023-05-09T22:33:28.100Z,10.73
2023-05-09T22:35:51.339Z,11.07
2023-05-09T22:38:14.617Z,11.65
2023-05-09T22:40:37.939Z,12.18
2023-05-09T22:43:01.170Z,10.95
2023-05-09T22:45:24.482Z,12.45
2023-05-09T22:47:47.802Z,12.13
2023-05-09T22:50:13.997Z,12.13
2023-05-09T22:52:37.362Z,12.63
2023-05-09T22:55:00.689Z,12.63
2023-05-09T22:57:23.928Z,14.32
2023-05-09T22:59:47.301Z,15.10
2023-05-09T23:02:10.643Z,14.20
2023-05-09T23:04:33.950Z,15.40
2023-05-09T23:06:58.610Z,15.75
2023-05-09T23:09:22.270Z,15.15
2023-05-09T23:11:45.487Z,16.08
2023-05-09T23:14:08.916Z,16.23
2023-05-09T23:16:32.278Z,15.95
2023-05-09T23:18:55.558Z,16.38
2023-05-09T23:21:18.835Z,15.50
2023-05-09T23:23:43.411Z,17.45
2023-05-09T23:26:06.620Z,15.68
2023-05-09T23:28:29.915Z,16.58
2023-05-09T23:30:54.142Z,17.48
2023-05-09T23:33:17.978Z,16.88
2023-05-09T23:35:41.280Z,16.70
2023-05-09T23:38:04.822Z,16.77
2023-05-09T23:40:29.466Z,17.27
2023-05-09T23:42:52.713Z,16.10
2023-05-09T23:45:16.273Z,18.85
2023-05-09T23:47:39.616Z,16.55
2023-05-09T23:50:03.049Z,15.00
2023-05-09T23:52:26.409Z,15.35
2023-05-09T23:54:49.709Z,15.45
2023-05-09T23:57:14.438Z,17.83
2023-05-09T23:59:37.882Z,17.45
